sensor_id;sensor_type;location;lat;lon;timestamp;temperature;humidity
7048;DHT22;3565;53.254;10.352;2023-02-03T06:45:19;20.30;1.00
7048;DHT22;3565;53.254;10.352;2023-02-03T06:47:48;20.20;1.00
7048;DHT22;3565;53.254;10.352;2023-02-03T06:50:18;20.30;1.00
7048;DHT22;3565;53.254;10.352;2023-02-03T06:52:49;20.40;1.00
7048;DHT22;3565;53.254;10.352;2023-02-03T06:55:19;20.40;1.00
7048;DHT22;3565;53.254;10.352;2023-02-03T06:57:49;20.40;1.00
7048;DHT22;3565;53.254;10.352;2023-02-03T07:00:20;20.50;1.00
7048;DHT22;3565;53.254;10.352;2023-02-03T07:02:55;20.50;1.00
7048;DHT22;3565;53.254;10.352;2023-02-03T07:05:25;20.60;1.00
7048;DHT22;3565;53.254;10.352;2023-02-03T07:07:55;20.60;1.00
7048;DHT22;3565;53.254;10.352;2023-02-03T07:10:25;20.60;1.00
7048;DHT22;3565;53.254;10.352;2023-02-03T07:12:54;20.70;1.00
7048;DHT22;3565;53.254;10.352;2023-02-03T07:15:26;20.70;1.00
7048;DHT22;3565;53.254;10.352;2023-02-03T07:17:56;20.70;1.00
7048;DHT22;3565;53.254;10.352;2023-02-03T07:20:26;20.70;1.00
7048;DHT22;3565;53.254;10.352;2023-02-03T07:22:56;20.70;1.00
7048;DHT22;3565;53.254;10.352;2023-02-03T07:25:27;20.70;1.00
7048;DHT22;3565;53.254;10.352;2023-02-03T07:27:56;20.70;1.00
7048;DHT22;3565;53.254;10.352;2023-02-03T07:30:26;20.70;1.00
7048;DHT22;3565;53.254;10.352;2023-02-03T07:32:55;20.70;1.00
7048;DHT22;3565;53.254;10.352;2023-02-03T07:35:25;20.70;1.00
7048;DHT22;3565;53.254;10.352;2023-02-03T07:37:54;20.80;1.00
7048;DHT22;3565;53.254;10.352;2023-02-03T07:40:23;21.00;1.00
7048;DHT22;3565;53.254;10.352;2023-02-03T07:42:53;21.10;1.00
7048;DHT22;3565;53.254;10.352;2023-02-03T07:48:01;21.50;1.00
7048;DHT22;3565;53.254;10.352;2023-02-03T07:50:34;21.50;1.00
7048;DHT22;3565;53.254;10.352;2023-02-03T07:53:05;21.60;1.00
7048;DHT22;3565;53.254;10.352;2023-02-03T07:55:37;21.80;1.00
7048;DHT22;3565;53.254;10.352;2023-02-03T07:58:07;21.90;1.00
7048;DHT22;3565;53.254;10.352;2023-02-03T08:00:37;21.90;1.00
7048;DHT22;3565;53.254;10.352;2023-02-03T08:03:08;21.70;1.00
7048;DHT22;3565;53.254;10.352;2023-02-03T08:05:37;21.50;1.00
7048;DHT22;3565;53.254;10.352;2023-02-03T08:08:08;21.30;1.00
7048;DHT22;3565;53.254;10.352;2023-02-03T08:10:37;21.20;1.00
7048;DHT22;3565;53.254;10.352;2023-02-03T08:13:06;21.10;1.00
7048;DHT22;3565;53.254;10.352;2023-02-03T08:15:37;21.10;1.00
7048;DHT22;3565;53.254;10.352;2023-02-03T08:18:07;21.10;1.00
7048;DHT22;3565;53.254;10.352;2023-02-03T08:20:39;21.10;1.00
7048;DHT22;3565;53.254;10.352;2023-02-03T08:23:09;21.00;1.00
7048;DHT22;3565;53.254;10.352;2023-02-03T08:25:39;21.00;1.00
7048;DHT22;3565;53.254;10.352;2023-02-03T08:28:10;21.00;1.00
7048;DHT22;3565;53.254;10.352;2023-02-03T08:30:40;21.00;1.00
7048;DHT22;3565;53.254;10.352;2023-02-03T08:33:09;21.00;1.00
7048;DHT22;3565;53.254;10.352;2023-02-03T08:35:39;21.00;1.00
7048;DHT22;3565;53.254;10.352;2023-02-03T08:38:09;21.00;1.00
7048;DHT22;3565;53.254;10.352;2023-02-03T08:40:40;21.00;1.00
7048;DHT22;3565;53.254;10.352;2023-02-03T08:43:10;21.00;1.00
7048;DHT22;3565;53.254;10.352;2023-02-03T08:45:41;21.00;1.00
7048;DHT22;3565;53.254;10.352;2023-02-03T08:48:12;20.90;1.00
7048;DHT22;3565;53.254;10.352;2023-02-03T08:50:42;20.90;1.00
7048;DHT22;3565;53.254;10.352;2023-02-03T08:53:15;20.90;1.00
7048;DHT22;3565;53.254;10.352;2023-02-03T08:55:44;20.80;1.00
7048;DHT22;3565;53.254;10.352;2023-02-03T08:58:13;20.80;1.00
7048;DHT22;3565;53.254;10.352;2023-02-03T09:00:44;20.80;1.00
7048;DHT22;3565;53.254;10.352;2023-02-03T09:03:17;20.80;1.00
7048;DHT22;3565;53.254;10.352;2023-02-03T09:05:48;20.80;1.00
7048;DHT22;3565;53.254;10.352;2023-02-03T09:08:17;20.80;1.00
7048;DHT22;3565;53.254;10.352;2023-02-03T09:10:47;20.90;1.00
7048;DHT22;3565;53.254;10.352;2023-02-03T09:13:18;20.80;1.00
7048;DHT22;3565;53.254;10.352;2023-02-03T09:15:48;20.80;1.00
7048;DHT22;3565;53.254;10.352;2023-02-03T09:18:17;20.80;1.00
7048;DHT22;3565;53.254;10.352;2023-02-03T09:20:47;20.90;1.00
7048;DHT22;3565;53.254;10.352;2023-02-03T09:23:17;20.90;1.00
7048;DHT22;3565;53.254;10.352;2023-02-03T09:25:47;20.90;1.00
7048;DHT22;3565;53.254;10.352;2023-02-03T09:28:17;20.90;1.00
7048;DHT22;3565;53.254;10.352;2023-02-03T09:30:46;20.90;1.00
7048;DHT22;3565;53.254;10.352;2023-02-03T09:33:15;20.90;1.00
7048;DHT22;3565;53.254;10.352;2023-02-03T09:35:52;21.00;1.00
7048;DHT22;3565;53.254;10.352;2023-02-03T09:38:23;21.00;1.00
7048;DHT22;3565;53.254;10.352;2023-02-03T09:40:56;21.00;1.00
7048;DHT22;3565;53.254;10.352;2023-02-03T09:43:33;21.00;1.00
7048;DHT22;3565;53.254;10.352;2023-02-03T09:46:06;21.00;1.00
7048;DHT22;3565;53.254;10.352;2023-02-03T09:48:39;21.10;1.00
7048;DHT22;3565;53.254;10.352;2023-02-03T09:51:15;21.10;1.00
7048;DHT22;3565;53.254;10.352;2023-02-03T09:53:49;21.10;1.00
7048;DHT22;3565;53.254;10.352;2023-02-03T09:56:25;21.10;1.00
7048;DHT22;3565;53.254;10.352;2023-02-03T09:58:54;21.10;1.00
7048;DHT22;3565;53.254;10.352;2023-02-03T10:01:27;21.10;1.00
7048;DHT22;3565;53.254;10.352;2023-02-03T10:03:59;21.10;1.00
7048;DHT22;3565;53.254;10.352;2023-02-03T10:06:35;21.20;1.00
7048;DHT22;3565;53.254;10.352;2023-02-03T10:09:18;21.10;1.00
7048;DHT22;3565;53.254;10.352;2023-02-03T10:12:03;21.20;1.00
7048;DHT22;3565;53.254;10.352;2023-02-03T10:14:40;21.20;1.00
7048;DHT22;3565;53.254;10.352;2023-02-03T10:17:18;21.20;1.00
7048;DHT22;3565;53.254;10.352;2023-02-03T10:19:51;21.20;1.00
7048;DHT22;3565;53.254;10.352;2023-02-03T10:22:23;21.20;1.00
7048;DHT22;3565;53.254;10.352;2023-02-03T10:24:58;21.20;1.00
7048;DHT22;3565;53.254;10.352;2023-02-03T10:27:28;21.20;1.00
7048;DHT22;3565;53.254;10.352;2023-02-03T10:30:00;21.20;1.00
7048;DHT22;3565;53.254;10.352;2023-02-03T10:32:31;21.20;1.00
7048;DHT22;3565;53.254;10.352;2023-02-03T10:35:02;21.20;1.00
7048;DHT22;3565;53.254;10.352;2023-02-03T10:37:35;21.20;1.00
7048;DHT22;3565;53.254;10.352;2023-02-03T10:40:10;21.30;1.00
7048;DHT22;3565;53.254;10.352;2023-02-03T10:42:43;21.30;1.00
7048;DHT22;3565;53.254;10.352;2023-02-03T10:45:35;21.30;1.00
7048;DHT22;3565;53.254;10.352;2023-02-03T10:48:04;21.30;1.00
7048;DHT22;3565;53.254;10.352;2023-02-03T10:50:38;21.30;1.00
7048;DHT22;3565;53.254;10.352;2023-02-03T10:53:30;21.30;1.00
7048;DHT22;3565;53.254;10.352;2023-02-03T10:56:06;21.30;1.00
7048;DHT22;3565;53.254;10.352;2023-02-03T10:58:37;21.20;1.00
7048;DHT22;3565;53.254;10.352;2023-02-03T11:01:10;21.20;1.00
7048;DHT22;3565;53.254;10.352;2023-02-03T11:03:41;21.20;1.00
7048;DHT22;3565;53.254;10.352;2023-02-03T11:06:12;21.20;1.00
7048;DHT22;3565;53.254;10.352;2023-02-03T11:08:45;21.20;1.00
7048;DHT22;3565;53.254;10.352;2023-02-03T11:11:20;21.30;1.00
7048;DHT22;3565;53.254;10.352;2023-02-03T11:14:01;21.30;1.00
7048;DHT22;3565;53.254;10.352;2023-02-03T11:16:26;21.40;1.00
7048;DHT22;3565;53.254;10.352;2023-02-03T11:18:57;21.40;1.00
7048;DHT22;3565;53.254;10.352;2023-02-03T11:21:30;21.40;1.00
7048;DHT22;3565;53.254;10.352;2023-02-03T11:24:05;21.40;1.00
7048;DHT22;3565;53.254;10.352;2023-02-03T11:26:39;21.40;1.00
7048;DHT22;3565;53.254;10.352;2023-02-03T11:29:15;21.50;1.00
7048;DHT22;3565;53.254;10.352;2023-02-03T11:31:48;21.50;1.00
7048;DHT22;3565;53.254;10.352;2023-02-03T11:34:21;21.50;1.00
7048;DHT22;3565;53.254;10.352;2023-02-03T11:36:52;21.50;1.00
7048;DHT22;3565;53.254;10.352;2023-02-03T11:39:27;21.40;1.00
7048;DHT22;3565;53.254;10.352;2023-02-03T11:41:57;21.40;1.00
7048;DHT22;3565;53.254;10.352;2023-02-03T11:44:27;21.40;1.00
7048;DHT22;3565;53.254;10.352;2023-02-03T11:47:02;21.40;1.00
7048;DHT22;3565;53.254;10.352;2023-02-03T11:49:59;21.40;1.00
7048;DHT22;3565;53.254;10.352;2023-02-03T11:52:47;21.40;1.00
7048;DHT22;3565;53.254;10.352;2023-02-03T11:55:21;21.40;1.00
7048;DHT22;3565;53.254;10.352;2023-02-03T11:57:59;21.40;1.00
7048;DHT22;3565;53.254;10.352;2023-02-03T12:00:34;21.50;1.00
7048;DHT22;3565;53.254;10.352;2023-02-03T12:03:33;21.50;1.00
7048;DHT22;3565;53.254;10.352;2023-02-03T12:06:19;21.50;1.00
7048;DHT22;3565;53.254;10.352;2023-02-03T12:09:14;21.50;1.00
7048;DHT22;3565;53.254;10.352;2023-02-03T12:11:59;21.50;1.00
7048;DHT22;3565;53.254;10.352;2023-02-03T12:14:37;21.50;1.00
7048;DHT22;3565;53.254;10.352;2023-02-03T12:17:24;21.50;1.00
7048;DHT22;3565;53.254;10.352;2023-02-03T12:20:08;21.40;1.00
7048;DHT22;3565;53.254;10.352;2023-02-03T12:22:41;21.40;1.00
7048;DHT22;3565;53.254;10.352;2023-02-03T12:35:22;21.30;1.00
7048;DHT22;3565;53.254;10.352;2023-02-03T12:37:54;21.20;1.00
7048;DHT22;3565;53.254;10.352;2023-02-03T12:40:27;21.30;1.00
7048;DHT22;3565;53.254;10.352;2023-02-03T12:43:00;21.20;1.00
7048;DHT22;3565;53.254;10.352;2023-02-03T12:45:33;21.20;1.00
7048;DHT22;3565;53.254;10.352;2023-02-03T12:48:08;21.20;1.00
7048;DHT22;3565;53.254;10.352;2023-02-03T12:50:39;21.20;1.00
7048;DHT22;3565;53.254;10.352;2023-02-03T12:53:13;21.20;1.00
7048;DHT22;3565;53.254;10.352;2023-02-03T12:55:45;21.20;1.00
7048;DHT22;3565;53.254;10.352;2023-02-03T12:58:20;21.20;1.00
7048;DHT22;3565;53.254;10.352;2023-02-03T13:00:53;21.20;1.00
7048;DHT22;3565;53.254;10.352;2023-02-03T13:06:06;21.20;1.00
7048;DHT22;3565;53.254;10.352;2023-02-03T13:08:38;21.30;1.00
7048;DHT22;3565;53.254;10.352;2023-02-03T13:13:52;21.30;1.00
7048;DHT22;3565;53.254;10.352;2023-02-03T13:16:27;21.30;1.00
7048;DHT22;3565;53.254;10.352;2023-02-03T13:21:39;21.40;1.00
7048;DHT22;3565;53.254;10.352;2023-02-03T13:24:11;21.40;1.00
7048;DHT22;3565;53.254;10.352;2023-02-03T13:30:02;21.40;1.00
7048;DHT22;3565;53.254;10.352;2023-02-03T13:35:37;21.40;1.00
7048;DHT22;3565;53.254;10.352;2023-02-03T13:38:14;21.40;1.00
7048;DHT22;3565;53.254;10.352;2023-02-03T13:40:52;21.40;1.00
7048;DHT22;3565;53.254;10.352;2023-02-03T13:43:25;21.40;1.00
7048;DHT22;3565;53.254;10.352;2023-02-03T13:45:54;21.50;1.00
7048;DHT22;3565;53.254;10.352;2023-02-03T13:48:26;21.50;1.00
7048;DHT22;3565;53.254;10.352;2023-02-03T13:51:05;21.50;1.00
7048;DHT22;3565;53.254;10.352;2023-02-03T13:53:37;21.50;1.00
7048;DHT22;3565;53.254;10.352;2023-02-03T13:56:14;21.50;1.00
7048;DHT22;3565;53.254;10.352;2023-02-03T13:58:39;21.50;1.00
7048;DHT22;3565;53.254;10.352;2023-02-03T14:01:30;21.50;1.00
7048;DHT22;3565;53.254;10.352;2023-02-03T14:04:01;21.50;1.00
7048;DHT22;3565;53.254;10.352;2023-02-03T14:07:02;21.50;1.00
7048;DHT22;3565;53.254;10.352;2023-02-03T14:09:45;21.50;1.00
7048;DHT22;3565;53.254;10.352;2023-02-03T14:12:55;21.50;1.00
7048;DHT22;3565;53.254;10.352;2023-02-03T14:15:33;21.50;1.00
7048;DHT22;3565;53.254;10.352;2023-02-03T14:24:01;21.50;1.00
7048;DHT22;3565;53.254;10.352;2023-02-03T14:26:36;21.50;1.00
7048;DHT22;3565;53.254;10.352;2023-02-03T14:29:10;21.50;1.00
7048;DHT22;3565;53.254;10.352;2023-02-03T14:34:42;21.50;1.00
7048;DHT22;3565;53.254;10.352;2023-02-03T14:37:21;21.50;1.00
7048;DHT22;3565;53.254;10.352;2023-02-03T14:40:20;21.60;1.00
7048;DHT22;3565;53.254;10.352;2023-02-03T14:42:56;21.60;1.00
7048;DHT22;3565;53.254;10.352;2023-02-03T14:48:33;21.60;1.00
7048;DHT22;3565;53.254;10.352;2023-02-03T14:51:09;21.60;1.00
7048;DHT22;3565;53.254;10.352;2023-02-03T14:53:57;21.50;1.00
7048;DHT22;3565;53.254;10.352;2023-02-03T14:56:38;21.50;1.00
7048;DHT22;3565;53.254;10.352;2023-02-03T14:59:07;21.50;1.00
7048;DHT22;3565;53.254;10.352;2023-02-03T15:04:49;21.50;1.00
7048;DHT22;3565;53.254;10.352;2023-02-03T15:07:39;21.40;1.00
7048;DHT22;3565;53.254;10.352;2023-02-03T15:10:16;21.40;1.00
7048;DHT22;3565;53.254;10.352;2023-02-03T15:12:48;21.40;1.00
7048;DHT22;3565;53.254;10.352;2023-02-03T15:15:23;21.40;1.00
7048;DHT22;3565;53.254;10.352;2023-02-03T15:17:54;21.40;1.00
7048;DHT22;3565;53.254;10.352;2023-02-03T15:20:32;21.40;1.00
7048;DHT22;3565;53.254;10.352;2023-02-03T15:23:02;21.40;1.00
7048;DHT22;3565;53.254;10.352;2023-02-03T15:25:34;21.40;1.00
7048;DHT22;3565;53.254;10.352;2023-02-03T15:28:12;21.40;1.00
7048;DHT22;3565;53.254;10.352;2023-02-03T15:30:45;21.30;1.00
7048;DHT22;3565;53.254;10.352;2023-02-03T15:33:16;21.30;1.00
7048;DHT22;3565;53.254;10.352;2023-02-03T15:35:51;21.30;1.00
7048;DHT22;3565;53.254;10.352;2023-02-03T15:38:23;21.30;1.00
7048;DHT22;3565;53.254;10.352;2023-02-03T15:40:55;21.30;1.00
7048;DHT22;3565;53.254;10.352;2023-02-03T15:43:29;21.30;1.00
7048;DHT22;3565;53.254;10.352;2023-02-03T15:46:04;21.20;1.00
7048;DHT22;3565;53.254;10.352;2023-02-03T15:48:39;21.20;1.00
7048;DHT22;3565;53.254;10.352;2023-02-03T15:51:12;21.20;1.00
7048;DHT22;3565;53.254;10.352;2023-02-03T15:53:50;21.20;1.00
7048;DHT22;3565;53.254;10.352;2023-02-03T15:56:31;21.20;1.00
7048;DHT22;3565;53.254;10.352;2023-02-03T15:58:55;21.20;1.00
7048;DHT22;3565;53.254;10.352;2023-02-03T16:01:25;21.20;1.00
7048;DHT22;3565;53.254;10.352;2023-02-03T16:03:56;21.20;1.00
7048;DHT22;3565;53.254;10.352;2023-02-03T16:06:29;21.20;1.00
7048;DHT22;3565;53.254;10.352;2023-02-03T16:09:01;21.20;1.00
7048;DHT22;3565;53.254;10.352;2023-02-03T16:11:33;21.30;1.00
7048;DHT22;3565;53.254;10.352;2023-02-03T16:14:04;21.30;1.00
7048;DHT22;3565;53.254;10.352;2023-02-03T16:16:39;21.30;1.00
7048;DHT22;3565;53.254;10.352;2023-02-03T16:19:14;21.30;1.00
7048;DHT22;3565;53.254;10.352;2023-02-03T16:21:53;21.30;1.00
7048;DHT22;3565;53.254;10.352;2023-02-03T16:27:27;21.30;1.00
7048;DHT22;3565;53.254;10.352;2023-02-03T16:30:21;21.30;1.00
7048;DHT22;3565;53.254;10.352;2023-02-03T16:33:14;21.30;1.00
7048;DHT22;3565;53.254;10.352;2023-02-03T16:36:09;21.30;1.00
7048;DHT22;3565;53.254;10.352;2023-02-03T16:39:00;21.30;1.00
7048;DHT22;3565;53.254;10.352;2023-02-03T16:41:47;21.30;1.00
7048;DHT22;3565;53.254;10.352;2023-02-03T16:44:35;21.30;1.00
7048;DHT22;3565;53.254;10.352;2023-02-03T16:47:25;21.30;1.00
7048;DHT22;3565;53.254;10.352;2023-02-03T16:50:14;21.20;1.00
7048;DHT22;3565;53.254;10.352;2023-02-03T16:53:02;21.20;1.00
7048;DHT22;3565;53.254;10.352;2023-02-03T16:55:31;21.20;1.00
7048;DHT22;3565;53.254;10.352;2023-02-03T16:58:03;21.20;1.00
7048;DHT22;3565;53.254;10.352;2023-02-03T17:00:32;21.20;1.00
7048;DHT22;3565;53.254;10.352;2023-02-03T17:03:04;21.30;1.00
7048;DHT22;3565;53.254;10.352;2023-02-03T17:05:37;21.20;1.00
7048;DHT22;3565;53.254;10.352;2023-02-03T17:08:07;21.20;1.00
7048;DHT22;3565;53.254;10.352;2023-02-03T17:10:38;21.20;1.00
7048;DHT22;3565;53.254;10.352;2023-02-03T17:13:07;21.20;1.00
7048;DHT22;3565;53.254;10.352;2023-02-03T17:15:40;21.20;1.00
7048;DHT22;3565;53.254;10.352;2023-02-03T17:18:09;21.20;1.00
7048;DHT22;3565;53.254;10.352;2023-02-03T17:20:40;21.20;1.00
7048;DHT22;3565;53.254;10.352;2023-02-03T17:23:11;21.20;1.00
7048;DHT22;3565;53.254;10.352;2023-02-03T17:25:42;21.20;1.00
7048;DHT22;3565;53.254;10.352;2023-02-03T17:28:12;21.20;1.00
7048;DHT22;3565;53.254;10.352;2023-02-03T17:30:42;21.20;1.00
7048;DHT22;3565;53.254;10.352;2023-02-03T17:35:58;21.20;1.00
7048;DHT22;3565;53.254;10.352;2023-02-03T17:38:28;21.20;1.00
7048;DHT22;3565;53.254;10.352;2023-02-03T17:40:58;21.20;1.00
7048;DHT22;3565;53.254;10.352;2023-02-03T17:43:28;21.20;1.00
7048;DHT22;3565;53.254;10.352;2023-02-03T17:46:02;21.20;1.00
7048;DHT22;3565;53.254;10.352;2023-02-03T17:51:12;21.20;1.00
7048;DHT22;3565;53.254;10.352;2023-02-03T17:53:44;21.20;1.00
7048;DHT22;3565;53.254;10.352;2023-02-03T17:56:16;21.20;1.00
7048;DHT22;3565;53.254;10.352;2023-02-03T17:58:46;21.20;1.00
7048;DHT22;3565;53.254;10.352;2023-02-03T18:01:18;21.10;1.00
7048;DHT22;3565;53.254;10.352;2023-02-03T18:03:48;21.20;1.00
7048;DHT22;3565;53.254;10.352;2023-02-03T18:06:20;21.20;1.00
7048;DHT22;3565;53.254;10.352;2023-02-03T18:08:51;21.20;1.00
7048;DHT22;3565;53.254;10.352;2023-02-03T18:11:20;21.20;1.00
7048;DHT22;3565;53.254;10.352;2023-02-03T18:13:50;21.20;1.00
7048;DHT22;3565;53.254;10.352;2023-02-03T18:16:22;21.20;1.00
7048;DHT22;3565;53.254;10.352;2023-02-03T18:18:54;21.20;1.00
7048;DHT22;3565;53.254;10.352;2023-02-03T18:21:24;21.20;1.00
7048;DHT22;3565;53.254;10.352;2023-02-03T18:23:55;21.20;1.00
7048;DHT22;3565;53.254;10.352;2023-02-03T18:26:27;21.20;1.00
7048;DHT22;3565;53.254;10.352;2023-02-03T18:28:56;21.20;1.00
7048;DHT22;3565;53.254;10.352;2023-02-03T18:31:25;21.20;1.00
7048;DHT22;3565;53.254;10.352;2023-02-03T18:33:57;21.20;1.00
7048;DHT22;3565;53.254;10.352;2023-02-03T18:39:05;21.20;1.00
7048;DHT22;3565;53.254;10.352;2023-02-03T18:41:34;21.20;1.00
7048;DHT22;3565;53.254;10.352;2023-02-03T18:44:06;21.20;1.00
7048;DHT22;3565;53.254;10.352;2023-02-03T18:46:36;21.20;1.00
7048;DHT22;3565;53.254;10.352;2023-02-03T18:49:07;21.20;1.00
7048;DHT22;3565;53.254;10.352;2023-02-03T18:51:37;21.20;1.00
7048;DHT22;3565;53.254;10.352;2023-02-03T18:56:46;21.20;1.00
7048;DHT22;3565;53.254;10.352;2023-02-03T18:59:15;21.20;1.00
7048;DHT22;3565;53.254;10.352;2023-02-03T19:01:46;21.20;1.00
7048;DHT22;3565;53.254;10.352;2023-02-03T19:04:16;21.10;1.00
7048;DHT22;3565;53.254;10.352;2023-02-03T19:06:45;21.10;1.00
7048;DHT22;3565;53.254;10.352;2023-02-03T19:09:16;21.20;1.00
7048;DHT22;3565;53.254;10.352;2023-02-03T19:11:49;21.10;1.00
7048;DHT22;3565;53.254;10.352;2023-02-03T19:14:19;21.10;1.00
7048;DHT22;3565;53.254;10.352;2023-02-03T19:16:48;21.10;1.00
7048;DHT22;3565;53.254;10.352;2023-02-03T19:19:20;21.20;1.00
7048;DHT22;3565;53.254;10.352;2023-02-03T19:21:50;21.20;1.00
7048;DHT22;3565;53.254;10.352;2023-02-03T19:24:19;21.20;1.00
7048;DHT22;3565;53.254;10.352;2023-02-03T19:26:51;21.20;1.00
7048;DHT22;3565;53.254;10.352;2023-02-03T19:29:20;21.20;1.00
7048;DHT22;3565;53.254;10.352;2023-02-03T19:31:50;21.10;1.00
7048;DHT22;3565;53.254;10.352;2023-02-03T19:34:19;21.10;1.00
7048;DHT22;3565;53.254;10.352;2023-02-03T19:36:48;21.10;1.00
7048;DHT22;3565;53.254;10.352;2023-02-03T19:39:19;21.10;1.00
7048;DHT22;3565;53.254;10.352;2023-02-03T19:44:31;21.10;1.00
7048;DHT22;3565;53.254;10.352;2023-02-03T19:47:01;21.10;1.00
7048;DHT22;3565;53.254;10.352;2023-02-03T19:49:32;21.00;1.00
7048;DHT22;3565;53.254;10.352;2023-02-03T19:52:03;21.00;1.00
7048;DHT22;3565;53.254;10.352;2023-02-03T19:54:34;21.00;1.00
7048;DHT22;3565;53.254;10.352;2023-02-03T19:57:06;21.10;1.00
7048;DHT22;3565;53.254;10.352;2023-02-03T19:59:35;21.00;1.00
7048;DHT22;3565;53.254;10.352;2023-02-03T20:02:05;21.00;1.00
7048;DHT22;3565;53.254;10.352;2023-02-03T20:04:36;21.00;1.00
7048;DHT22;3565;53.254;10.352;2023-02-03T20:09:48;21.00;1.00
7048;DHT22;3565;53.254;10.352;2023-02-03T20:12:18;21.00;1.00
7048;DHT22;3565;53.254;10.352;2023-02-03T20:14:49;21.00;1.00
7048;DHT22;3565;53.254;10.352;2023-02-03T20:17:18;21.00;1.00
7048;DHT22;3565;53.254;10.352;2023-02-03T20:19:48;21.00;1.00
7048;DHT22;3565;53.254;10.352;2023-02-03T20:22:17;21.00;1.00
7048;DHT22;3565;53.254;10.352;2023-02-03T20:24:46;21.00;1.00
7048;DHT22;3565;53.254;10.352;2023-02-03T20:27:15;21.00;1.00
7048;DHT22;3565;53.254;10.352;2023-02-03T20:29:45;21.00;1.00
7048;DHT22;3565;53.254;10.352;2023-02-03T20:34:55;21.00;1.00
7048;DHT22;3565;53.254;10.352;2023-02-03T20:37:26;21.00;1.00
7048;DHT22;3565;53.254;10.352;2023-02-03T20:39:56;21.00;1.00
7048;DHT22;3565;53.254;10.352;2023-02-03T20:42:26;21.00;1.00
7048;DHT22;3565;53.254;10.352;2023-02-03T20:44:55;21.00;1.00
7048;DHT22;3565;53.254;10.352;2023-02-03T20:47:26;21.00;1.00
7048;DHT22;3565;53.254;10.352;2023-02-03T20:49:56;21.00;1.00
7048;DHT22;3565;53.254;10.352;2023-02-03T20:52:25;21.00;1.00
7048;DHT22;3565;53.254;10.352;2023-02-03T20:54:55;21.00;1.00
7048;DHT22;3565;53.254;10.352;2023-02-03T21:00:14;20.90;1.00
7048;DHT22;3565;53.254;10.352;2023-02-03T21:02:45;21.00;1.00
7048;DHT22;3565;53.254;10.352;2023-02-03T21:08:24;21.00;1.00
7048;DHT22;3565;53.254;10.352;2023-02-03T21:13:34;21.10;1.00
7048;DHT22;3565;53.254;10.352;2023-02-03T21:16:11;21.00;1.00
7048;DHT22;3565;53.254;10.352;2023-02-03T21:18:45;21.00;1.00
7048;DHT22;3565;53.254;10.352;2023-02-03T21:21:17;21.00;1.00
7048;DHT22;3565;53.254;10.352;2023-02-03T21:23:49;21.00;1.00
7048;DHT22;3565;53.254;10.352;2023-02-03T21:26:22;21.00;1.00
7048;DHT22;3565;53.254;10.352;2023-02-03T21:28:53;21.00;1.00
7048;DHT22;3565;53.254;10.352;2023-02-03T21:34:02;21.00;1.00
7048;DHT22;3565;53.254;10.352;2023-02-03T21:36:35;21.00;1.00
7048;DHT22;3565;53.254;10.352;2023-02-03T21:39:10;21.00;1.00
7048;DHT22;3565;53.254;10.352;2023-02-03T21:41:38;21.00;1.00
7048;DHT22;3565;53.254;10.352;2023-02-03T21:44:21;21.00;1.00
7048;DHT22;3565;53.254;10.352;2023-02-03T21:46:51;21.00;1.00
7048;DHT22;3565;53.254;10.352;2023-02-03T21:52:06;21.00;1.00
7048;DHT22;3565;53.254;10.352;2023-02-03T21:54:39;21.00;1.00
7048;DHT22;3565;53.254;10.352;2023-02-03T21:57:12;21.00;1.00
7048;DHT22;3565;53.254;10.352;2023-02-03T21:59:42;21.00;1.00
7048;DHT22;3565;53.254;10.352;2023-02-03T22:05:02;21.00;1.00
7048;DHT22;3565;53.254;10.352;2023-02-03T22:07:32;21.00;1.00
7048;DHT22;3565;53.254;10.352;2023-02-03T22:10:02;21.00;1.00
7048;DHT22;3565;53.254;10.352;2023-02-03T22:12:31;21.00;1.00
7048;DHT22;3565;53.254;10.352;2023-02-03T22:15:00;21.00;1.00
7048;DHT22;3565;53.254;10.352;2023-02-03T22:17:29;21.00;1.00
7048;DHT22;3565;53.254;10.352;2023-02-03T22:19:58;21.00;1.00
7048;DHT22;3565;53.254;10.352;2023-02-03T22:22:28;21.00;1.00
7048;DHT22;3565;53.254;10.352;2023-02-03T22:24:58;21.00;1.00
7048;DHT22;3565;53.254;10.352;2023-02-03T22:27:29;21.00;1.00
7048;DHT22;3565;53.254;10.352;2023-02-03T22:30:00;21.00;1.00
7048;DHT22;3565;53.254;10.352;2023-02-03T22:32:30;21.00;1.00
7048;DHT22;3565;53.254;10.352;2023-02-03T22:35:01;21.00;1.00
7048;DHT22;3565;53.254;10.352;2023-02-03T22:40:12;21.00;1.00
7048;DHT22;3565;53.254;10.352;2023-02-03T22:42:42;21.00;1.00
7048;DHT22;3565;53.254;10.352;2023-02-03T22:45:13;21.00;1.00
7048;DHT22;3565;53.254;10.352;2023-02-03T22:47:43;21.00;1.00
7048;DHT22;3565;53.254;10.352;2023-02-03T22:50:15;21.00;1.00
7048;DHT22;3565;53.254;10.352;2023-02-03T22:52:45;21.00;1.00
7048;DHT22;3565;53.254;10.352;2023-02-03T22:55:14;21.00;1.00
7048;DHT22;3565;53.254;10.352;2023-02-03T22:57:45;21.00;1.00
7048;DHT22;3565;53.254;10.352;2023-02-03T23:00:18;21.00;1.00
7048;DHT22;3565;53.254;10.352;2023-02-03T23:02:49;21.00;1.00
7048;DHT22;3565;53.254;10.352;2023-02-03T23:05:20;21.00;1.00
7048;DHT22;3565;53.254;10.352;2023-02-03T23:07:49;21.00;1.00
7048;DHT22;3565;53.254;10.352;2023-02-03T23:10:21;21.10;1.00
7048;DHT22;3565;53.254;10.352;2023-02-03T23:12:51;21.10;1.00
7048;DHT22;3565;53.254;10.352;2023-02-03T23:15:20;21.10;1.00
7048;DHT22;3565;53.254;10.352;2023-02-03T23:17:50;21.10;1.00
7048;DHT22;3565;53.254;10.352;2023-02-03T23:20:20;21.10;1.00
7048;DHT22;3565;53.254;10.352;2023-02-03T23:22:49;21.10;1.00
7048;DHT22;3565;53.254;10.352;2023-02-03T23:25:19;21.10;1.00
7048;DHT22;3565;53.254;10.352;2023-02-03T23:27:49;21.10;1.00
7048;DHT22;3565;53.254;10.352;2023-02-03T23:30:18;21.10;1.00
7048;DHT22;3565;53.254;10.352;2023-02-03T23:32:47;21.10;1.00
7048;DHT22;3565;53.254;10.352;2023-02-03T23:35:17;21.10;1.00
7048;DHT22;3565;53.254;10.352;2023-02-03T23:38:04;21.10;1.00
7048;DHT22;3565;53.254;10.352;2023-02-03T23:40:35;21.10;1.00
7048;DHT22;3565;53.254;10.352;2023-02-03T23:43:05;21.10;1.00
7048;DHT22;3565;53.254;10.352;2023-02-03T23:45:34;21.10;1.00
7048;DHT22;3565;53.254;10.352;2023-02-03T23:48:04;21.10;1.00
7048;DHT22;3565;53.254;10.352;2023-02-03T23:50:34;21.10;1.00
7048;DHT22;3565;53.254;10.352;2023-02-03T23:53:05;21.10;1.00
7048;DHT22;3565;53.254;10.352;2023-02-03T23:55:34;21.10;1.00
7048;DHT22;3565;53.254;10.352;2023-02-03T23:58:03;21.10;1.00
